sensor_id;sensor_type;location;lat;lon;timestamp;pressure;altitude;pressure_sealevel;temperature;humidity
70506;BME280;58032;49.820;6.274;2023-04-06T00:01:11;97794.13;;;-2.01;100.00
70506;BME280;58032;49.820;6.274;2023-04-06T00:03:38;97792.91;;;-2.03;100.00
70506;BME280;58032;49.820;6.274;2023-04-06T00:06:05;97789.31;;;-2.08;100.00
70506;BME280;58032;49.820;6.274;2023-04-06T00:08:32;97792.91;;;-2.03;100.00
70506;BME280;58032;49.820;6.274;2023-04-06T00:10:59;97795.03;;;-1.93;100.00
70506;BME280;58032;49.820;6.274;2023-04-06T00:13:27;97785.59;;;-1.92;100.00
70506;BME280;58032;49.820;6.274;2023-04-06T00:15:54;97788.75;;;-1.90;100.00
70506;BME280;58032;49.820;6.274;2023-04-06T00:18:22;97788.75;;;-1.90;100.00
70506;BME280;58032;49.820;6.274;2023-04-06T00:20:49;97787.38;;;-2.03;100.00
70506;BME280;58032;49.820;6.274;2023-04-06T00:23:17;97786.16;;;-2.06;100.00
70506;BME280;58032;49.820;6.274;2023-04-06T00:25:44;97789.31;;;-2.08;100.00
70506;BME280;58032;49.820;6.274;2023-04-06T00:28:11;97787.59;;;-2.16;100.00
70506;BME280;58032;49.820;6.274;2023-04-06T00:30:40;97779.22;;;-2.23;100.00
70506;BME280;58032;49.820;6.274;2023-04-06T00:33:07;97781.47;;;-2.29;100.00
70506;BME280;58032;49.820;6.274;2023-04-06T00:35:34;97778.28;;;-2.31;100.00
70506;BME280;58032;49.820;6.274;2023-04-06T00:38:02;97779.09;;;-2.30;100.00
70506;BME280;58032;49.820;6.274;2023-04-06T00:40:28;97773.69;;;-2.23;100.00
70506;BME280;58032;49.820;6.274;2023-04-06T00:42:56;97770.50;;;-2.25;100.00
70506;BME280;58032;49.820;6.274;2023-04-06T00:45:23;97769.16;;;-2.35;100.00
70506;BME280;58032;49.820;6.274;2023-04-06T00:47:50;97764.75;;;-2.40;100.00
70506;BME280;58032;49.820;6.274;2023-04-06T00:50:17;97770.19;;;-2.20;100.00
70506;BME280;58032;49.820;6.274;2023-04-06T00:52:44;97757.25;;;-2.16;100.00
70506;BME280;58032;49.820;6.274;2023-04-06T00:55:11;97765.34;;;-2.27;100.00
70506;BME280;58032;49.820;6.274;2023-04-06T00:57:41;97759.00;;;-2.54;100.00
70506;BME280;58032;49.820;6.274;2023-04-06T01:00:09;97757.53;;;-2.48;100.00
70506;BME280;58032;49.820;6.274;2023-04-06T01:02:37;97762.53;;;-2.30;100.00
70506;BME280;58032;49.820;6.274;2023-04-06T01:05:04;97756.47;;;-2.40;100.00
70506;BME280;58032;49.820;6.274;2023-04-06T01:07:42;97756.97;;;-2.57;100.00
70506;BME280;58032;49.820;6.274;2023-04-06T01:10:27;97760.75;;;-2.65;100.00
70506;BME280;58032;49.820;6.274;2023-04-06T01:13:01;97764.22;;;-2.72;100.00
70506;BME280;58032;49.820;6.274;2023-04-06T01:15:57;97755.00;;;-2.80;100.00
70506;BME280;58032;49.820;6.274;2023-04-06T01:18:31;97758.19;;;-2.78;100.00
70506;BME280;58032;49.820;6.274;2023-04-06T01:21:24;97757.31;;;-2.82;100.00
70506;BME280;58032;49.820;6.274;2023-04-06T01:24:09;97746.22;;;-2.86;100.00
70506;BME280;58032;49.820;6.274;2023-04-06T01:27:03;97753.59;;;-2.93;100.00
70506;BME280;58032;49.820;6.274;2023-04-06T01:29:43;97743.28;;;-2.96;100.00
70506;BME280;58032;49.820;6.274;2023-04-06T01:32:31;97741.47;;;-2.89;100.00
70506;BME280;58032;49.820;6.274;2023-04-06T01:34:58;97734.22;;;-2.74;100.00
70506;BME280;58032;49.820;6.274;2023-04-06T01:37:26;97739.25;;;-2.56;100.00
70506;BME280;58032;49.820;6.274;2023-04-06T01:39:56;97729.56;;;-2.46;100.00
70506;BME280;58032;49.820;6.274;2023-04-06T01:42:36;97733.56;;;-2.44;100.00
70506;BME280;58032;49.820;6.274;2023-04-06T01:45:04;97730.31;;;-2.49;100.00
70506;BME280;58032;49.820;6.274;2023-04-06T01:47:31;97726.44;;;-2.45;100.00
70506;BME280;58032;49.820;6.274;2023-04-06T01:49:58;97723.88;;;-2.34;100.00
70506;BME280;58032;49.820;6.274;2023-04-06T01:52:27;97728.69;;;-2.27;100.00
70506;BME280;58032;49.820;6.274;2023-04-06T01:54:54;97726.84;;;-2.19;100.00
70506;BME280;58032;49.820;6.274;2023-04-06T01:57:37;97727.41;;;-2.07;100.00
70506;BME280;58032;49.820;6.274;2023-04-06T02:00:12;97727.91;;;-2.01;100.00
70506;BME280;58032;49.820;6.274;2023-04-06T02:02:39;97722.03;;;-1.99;100.00
70506;BME280;58032;49.820;6.274;2023-04-06T02:05:13;97720.47;;;-1.97;100.00
70506;BME280;58032;49.820;6.274;2023-04-06T02:07:40;97726.41;;;-1.95;100.00
70506;BME280;58032;49.820;6.274;2023-04-06T02:10:12;97735.13;;;-2.19;100.00
70506;BME280;58032;49.820;6.274;2023-04-06T02:12:39;97719.69;;;-2.24;100.00
70506;BME280;58032;49.820;6.274;2023-04-06T02:15:11;97727.41;;;-2.33;100.00
70506;BME280;58032;49.820;6.274;2023-04-06T02:17:41;97735.47;;;-2.48;100.00
70506;BME280;58032;49.820;6.274;2023-04-06T02:20:09;97724.69;;;-2.80;100.00
70506;BME280;58032;49.820;6.274;2023-04-06T02:22:36;97723.94;;;-3.00;100.00
70506;BME280;58032;49.820;6.274;2023-04-06T02:25:03;97725.91;;;-3.00;100.00
70506;BME280;58032;49.820;6.274;2023-04-06T02:27:30;97729.22;;;-2.91;100.00
70506;BME280;58032;49.820;6.274;2023-04-06T02:29:57;97721.88;;;-2.83;100.00
70506;BME280;58032;49.820;6.274;2023-04-06T02:32:24;97719.22;;;-2.76;100.00
70506;BME280;58032;49.820;6.274;2023-04-06T02:34:52;97714.09;;;-2.78;100.00
70506;BME280;58032;49.820;6.274;2023-04-06T02:37:20;97716.47;;;-2.76;100.00
70506;BME280;58032;49.820;6.274;2023-04-06T02:39:48;97713.00;;;-2.73;100.00
70506;BME280;58032;49.820;6.274;2023-04-06T02:42:15;97712.38;;;-2.63;100.00
70506;BME280;58032;49.820;6.274;2023-04-06T02:44:44;97713.59;;;-2.60;100.00
70506;BME280;58032;49.820;6.274;2023-04-06T02:47:11;97704.91;;;-2.62;100.00
70506;BME280;58032;49.820;6.274;2023-04-06T02:49:41;97704.16;;;-2.59;100.00
70506;BME280;58032;49.820;6.274;2023-04-06T02:52:08;97703.00;;;-2.58;100.00
70506;BME280;58032;49.820;6.274;2023-04-06T02:54:36;97703.00;;;-2.58;100.00
70506;BME280;58032;49.820;6.274;2023-04-06T02:57:03;97704.97;;;-2.59;100.00
70506;BME280;58032;49.820;6.274;2023-04-06T02:59:38;97702.63;;;-2.57;100.00
70506;BME280;58032;49.820;6.274;2023-04-06T03:02:28;97697.03;;;-2.60;100.00
70506;BME280;58032;49.820;6.274;2023-04-06T03:05:03;97698.53;;;-2.66;100.00
70506;BME280;58032;49.820;6.274;2023-04-06T03:07:35;97701.66;;;-2.68;100.00
70506;BME280;58032;49.820;6.274;2023-04-06T03:10:02;97698.66;;;-2.82;100.00
70506;BME280;58032;49.820;6.274;2023-04-06T03:12:31;97697.59;;;-2.97;100.00
70506;BME280;58032;49.820;6.274;2023-04-06T03:15:27;97697.59;;;-2.97;100.00
70506;BME280;58032;49.820;6.274;2023-04-06T03:18:03;97701.16;;;-2.97;100.00
70506;BME280;58032;49.820;6.274;2023-04-06T03:20:36;97701.66;;;-2.91;100.00
70506;BME280;58032;49.820;6.274;2023-04-06T03:23:02;97704.13;;;-2.86;100.00
70506;BME280;58032;49.820;6.274;2023-04-06T03:25:34;97702.25;;;-3.02;100.00
70506;BME280;58032;49.820;6.274;2023-04-06T03:28:04;97710.69;;;-3.14;100.00
70506;BME280;58032;49.820;6.274;2023-04-06T03:30:37;97712.88;;;-3.23;100.00
70506;BME280;58032;49.820;6.274;2023-04-06T03:33:04;97708.97;;;-3.22;100.00
70506;BME280;58032;49.820;6.274;2023-04-06T03:35:37;97708.97;;;-3.22;100.00
70506;BME280;58032;49.820;6.274;2023-04-06T03:38:04;97712.16;;;-3.20;100.00
70506;BME280;58032;49.820;6.274;2023-04-06T03:40:31;97708.22;;;-3.19;100.00
70506;BME280;58032;49.820;6.274;2023-04-06T03:42:58;97709.25;;;-3.27;100.00
70506;BME280;58032;49.820;6.274;2023-04-06T03:45:26;97716.53;;;-3.39;100.00
70506;BME280;58032;49.820;6.274;2023-04-06T03:47:52;97713.25;;;-3.44;100.00
70506;BME280;58032;49.820;6.274;2023-04-06T03:50:20;97710.13;;;-3.43;100.00
70506;BME280;58032;49.820;6.274;2023-04-06T03:52:47;97711.09;;;-3.35;100.00
70506;BME280;58032;49.820;6.274;2023-04-06T03:55:13;97710.06;;;-3.27;100.00
70506;BME280;58032;49.820;6.274;2023-04-06T03:57:40;97713.75;;;-3.19;100.00
70506;BME280;58032;49.820;6.274;2023-04-06T04:00:08;97714.81;;;-3.04;100.00
70506;BME280;58032;49.820;6.274;2023-04-06T04:02:39;97713.28;;;-3.02;100.00
70506;BME280;58032;49.820;6.274;2023-04-06T04:05:06;97711.25;;;-3.05;100.00
70506;BME280;58032;49.820;6.274;2023-04-06T04:07:33;97714.00;;;-3.05;100.00
70506;BME280;58032;49.820;6.274;2023-04-06T04:10:00;97710.41;;;-2.86;100.00
70506;BME280;58032;49.820;6.274;2023-04-06T04:12:28;97720.78;;;-2.79;100.00
70506;BME280;58032;49.820;6.274;2023-04-06T04:14:57;97712.19;;;-2.74;100.00
70506;BME280;58032;49.820;6.274;2023-04-06T04:17:24;97720.09;;;-2.72;100.00
70506;BME280;58032;49.820;6.274;2023-04-06T04:19:51;97716.22;;;-2.67;100.00
70506;BME280;58032;49.820;6.274;2023-04-06T04:22:18;97717.75;;;-2.70;100.00
70506;BME280;58032;49.820;6.274;2023-04-06T04:24:45;97723.22;;;-2.74;100.00
70506;BME280;58032;49.820;6.274;2023-04-06T04:27:12;97725.91;;;-2.77;100.00
70506;BME280;58032;49.820;6.274;2023-04-06T04:29:40;97723.97;;;-2.77;100.00
70506;BME280;58032;49.820;6.274;2023-04-06T04:32:10;97724.94;;;-2.65;100.00
70506;BME280;58032;49.820;6.274;2023-04-06T04:34:37;97716.53;;;-2.49;100.00
70506;BME280;58032;49.820;6.274;2023-04-06T04:37:10;97722.28;;;-2.35;100.00
70506;BME280;58032;49.820;6.274;2023-04-06T04:39:47;97731.00;;;-2.29;100.00
70506;BME280;58032;49.820;6.274;2023-04-06T04:42:14;97727.97;;;-2.24;100.00
70506;BME280;58032;49.820;6.274;2023-04-06T04:44:46;97728.56;;;-2.11;100.00
70506;BME280;58032;49.820;6.274;2023-04-06T04:47:18;97729.06;;;-2.02;100.00
70506;BME280;58032;49.820;6.274;2023-04-06T04:49:47;97721.53;;;-2.05;100.00
70506;BME280;58032;49.820;6.274;2023-04-06T04:52:19;97724.44;;;-2.21;100.00
70506;BME280;58032;49.820;6.274;2023-04-06T04:54:57;97724.50;;;-2.17;100.00
70506;BME280;58032;49.820;6.274;2023-04-06T04:57:27;97723.34;;;-2.16;100.00
70506;BME280;58032;49.820;6.274;2023-04-06T04:59:54;97722.97;;;-2.15;100.00
70506;BME280;58032;49.820;6.274;2023-04-06T05:02:22;97723.28;;;-2.20;100.00
70506;BME280;58032;49.820;6.274;2023-04-06T05:05:18;97717.28;;;-1.99;100.00
70506;BME280;58032;49.820;6.274;2023-04-06T05:07:45;97717.44;;;-1.88;100.00
70506;BME280;58032;49.820;6.274;2023-04-06T05:10:23;97723.41;;;-1.86;100.00
70506;BME280;58032;49.820;6.274;2023-04-06T05:12:54;97731.66;;;-1.86;100.00
70506;BME280;58032;49.820;6.274;2023-04-06T05:15:21;97729.53;;;-1.96;100.00
70506;BME280;58032;49.820;6.274;2023-04-06T05:17:52;97720.44;;;-2.00;100.00
70506;BME280;58032;49.820;6.274;2023-04-06T05:20:24;97718.06;;;-1.98;100.00
70506;BME280;58032;49.820;6.274;2023-04-06T05:22:52;97720.72;;;-1.79;100.00
70506;BME280;58032;49.820;6.274;2023-04-06T05:25:19;97723.34;;;-1.59;100.00
70506;BME280;58032;49.820;6.274;2023-04-06T05:27:49;97720.75;;;-1.45;100.00
70506;BME280;58032;49.820;6.274;2023-04-06T05:30:29;97731.72;;;-1.18;100.00
70506;BME280;58032;49.820;6.274;2023-04-06T05:32:57;97721.25;;;-1.01;100.00
70506;BME280;58032;49.820;6.274;2023-04-06T05:35:29;97718.59;;;-0.90;100.00
70506;BME280;58032;49.820;6.274;2023-04-06T05:38:01;97718.75;;;-0.76;100.00
70506;BME280;58032;49.820;6.274;2023-04-06T05:40:28;97719.53;;;-0.75;100.00
70506;BME280;58032;49.820;6.274;2023-04-06T05:42:55;97724.22;;;-0.80;100.00
70506;BME280;58032;49.820;6.274;2023-04-06T05:45:22;97721.81;;;-0.85;100.00
70506;BME280;58032;49.820;6.274;2023-04-06T05:47:53;97726.19;;;-0.80;100.00
70506;BME280;58032;49.820;6.274;2023-04-06T05:50:27;97722.00;;;-0.67;100.00
70506;BME280;58032;49.820;6.274;2023-04-06T05:52:55;97724.50;;;-0.51;100.00
70506;BME280;58032;49.820;6.274;2023-04-06T05:55:26;97716.34;;;-0.33;100.00
70506;BME280;58032;49.820;6.274;2023-04-06T05:58:06;97729.22;;;-0.92;100.00
70506;BME280;58032;49.820;6.274;2023-04-06T06:00:33;97727.88;;;-0.68;100.00
70506;BME280;58032;49.820;6.274;2023-04-06T06:03:04;97727.13;;;-0.20;100.00
70506;BME280;58032;49.820;6.274;2023-04-06T06:05:34;97725.31;;;0.06;100.00
70506;BME280;58032;49.820;6.274;2023-04-06T06:08:09;97730.28;;;-0.18;100.00
70506;BME280;58032;49.820;6.274;2023-04-06T06:10:38;97732.50;;;0.18;100.00
70506;BME280;58032;49.820;6.274;2023-04-06T06:13:06;97735.09;;;-0.08;100.00
70506;BME280;58032;49.820;6.274;2023-04-06T06:15:34;97728.66;;;0.37;100.00
70506;BME280;58032;49.820;6.274;2023-04-06T06:18:01;97726.44;;;0.71;100.00
70506;BME280;58032;49.820;6.274;2023-04-06T06:20:29;97719.72;;;0.72;100.00
70506;BME280;58032;49.820;6.274;2023-04-06T06:23:00;97721.41;;;1.09;100.00
70506;BME280;58032;49.820;6.274;2023-04-06T06:25:27;97724.19;;;1.20;100.00
70506;BME280;58032;49.820;6.274;2023-04-06T06:27:54;97717.03;;;1.12;100.00
70506;BME280;58032;49.820;6.274;2023-04-06T06:30:21;97719.88;;;1.45;100.00
70506;BME280;58032;49.820;6.274;2023-04-06T06:32:50;97723.38;;;1.05;100.00
70506;BME280;58032;49.820;6.274;2023-04-06T06:35:17;97728.44;;;0.74;100.00
70506;BME280;58032;49.820;6.274;2023-04-06T06:37:45;97728.59;;;1.39;100.00
70506;BME280;58032;49.820;6.274;2023-04-06T06:40:16;97721.06;;;1.80;100.00
70506;BME280;58032;49.820;6.274;2023-04-06T06:42:46;97724.66;;;1.98;100.00
70506;BME280;58032;49.820;6.274;2023-04-06T06:45:23;97720.28;;;2.04;100.00
70506;BME280;58032;49.820;6.274;2023-04-06T06:47:52;97720.69;;;1.70;100.00
70506;BME280;58032;49.820;6.274;2023-04-06T06:50:20;97722.66;;;1.95;100.00
70506;BME280;58032;49.820;6.274;2023-04-06T06:52:47;97717.03;;;2.28;100.00
70506;BME280;58032;49.820;6.274;2023-04-06T06:55:14;97712.53;;;2.77;100.00
70506;BME280;58032;49.820;6.274;2023-04-06T06:57:42;97713.41;;;2.52;100.00
70506;BME280;58032;49.820;6.274;2023-04-06T07:00:10;97707.25;;;2.97;100.00
70506;BME280;58032;49.820;6.274;2023-04-06T07:02:39;97710.66;;;3.27;100.00
70506;BME280;58032;49.820;6.274;2023-04-06T07:05:07;97717.81;;;3.24;100.00
70506;BME280;58032;49.820;6.274;2023-04-06T07:07:38;97714.94;;;2.68;100.00
70506;BME280;58032;49.820;6.274;2023-04-06T07:10:06;97712.25;;;3.24;100.00
70506;BME280;58032;49.820;6.274;2023-04-06T07:12:37;97723.69;;;2.66;100.00
70506;BME280;58032;49.820;6.274;2023-04-06T07:15:05;97715.69;;;2.79;100.00
70506;BME280;58032;49.820;6.274;2023-04-06T07:17:33;97722.97;;;2.41;100.00
70506;BME280;58032;49.820;6.274;2023-04-06T07:20:00;97723.69;;;2.66;100.00
70506;BME280;58032;49.820;6.274;2023-04-06T07:22:27;97722.03;;;2.80;100.00
70506;BME280;58032;49.820;6.274;2023-04-06T07:24:54;97723.00;;;3.22;100.00
70506;BME280;58032;49.820;6.274;2023-04-06T07:27:21;97721.94;;;3.01;100.00
70506;BME280;58032;49.820;6.274;2023-04-06T07:29:48;97727.38;;;3.23;100.00
70506;BME280;58032;49.820;6.274;2023-04-06T07:32:15;97725.00;;;3.22;100.00
70506;BME280;58032;49.820;6.274;2023-04-06T07:34:42;97720.34;;;3.68;100.00
70506;BME280;58032;49.820;6.274;2023-04-06T07:37:11;97721.19;;;4.06;100.00
70506;BME280;58032;49.820;6.274;2023-04-06T07:39:38;97712.78;;;4.10;100.00
70506;BME280;58032;49.820;6.274;2023-04-06T07:42:05;97721.34;;;3.88;100.00
70506;BME280;58032;49.820;6.274;2023-04-06T07:44:32;97714.94;;;3.91;100.00
70506;BME280;58032;49.820;6.274;2023-04-06T07:46:59;97723.19;;;3.53;100.00
70506;BME280;58032;49.820;6.274;2023-04-06T07:49:27;97718.22;;;3.83;100.00
70506;BME280;58032;49.820;6.274;2023-04-06T07:51:54;97716.47;;;4.00;100.00
70506;BME280;58032;49.820;6.274;2023-04-06T07:54:21;97708.66;;;4.25;100.00
70506;BME280;58032;49.820;6.274;2023-04-06T07:56:48;97715.03;;;4.22;100.00
70506;BME280;58032;49.820;6.274;2023-04-06T07:59:15;97713.50;;;4.21;100.00
70506;BME280;58032;49.820;6.274;2023-04-06T08:01:42;97709.59;;;4.50;100.00
70506;BME280;58032;49.820;6.274;2023-04-06T08:04:09;97703.41;;;5.00;100.00
70506;BME280;58032;49.820;6.274;2023-04-06T08:06:36;97699.38;;;5.83;100.00
70506;BME280;58032;49.820;6.274;2023-04-06T08:09:03;97697.56;;;5.97;100.00
70506;BME280;58032;49.820;6.274;2023-04-06T08:11:30;97696.09;;;5.89;100.00
70506;BME280;58032;49.820;6.274;2023-04-06T08:13:57;97693.03;;;6.07;100.00
70506;BME280;58032;49.820;6.274;2023-04-06T08:16:24;97691.16;;;6.84;100.00
70506;BME280;58032;49.820;6.274;2023-04-06T08:18:51;97692.94;;;6.74;100.00
70506;BME280;58032;49.820;6.274;2023-04-06T08:21:18;97695.94;;;7.04;100.00
70506;BME280;58032;49.820;6.274;2023-04-06T08:23:45;97692.22;;;6.90;100.00
70506;BME280;58032;49.820;6.274;2023-04-06T08:26:14;97688.19;;;7.11;100.00
70506;BME280;58032;49.820;6.274;2023-04-06T08:28:41;97691.25;;;7.17;100.00
70506;BME280;58032;49.820;6.274;2023-04-06T08:31:09;97692.03;;;7.18;100.00
70506;BME280;58032;49.820;6.274;2023-04-06T08:33:36;97692.41;;;7.36;100.00
70506;BME280;58032;49.820;6.274;2023-04-06T08:36:13;97690.78;;;7.39;100.00
70506;BME280;58032;49.820;6.274;2023-04-06T08:38:41;97689.84;;;7.25;100.00
70506;BME280;58032;49.820;6.274;2023-04-06T08:41:13;97694.03;;;7.70;100.00
70506;BME280;58032;49.820;6.274;2023-04-06T08:43:46;97692.06;;;7.34;100.00
70506;BME280;58032;49.820;6.274;2023-04-06T08:46:14;97691.88;;;7.25;100.00
70506;BME280;58032;49.820;6.274;2023-04-06T08:48:42;97689.34;;;6.94;100.00
70506;BME280;58032;49.820;6.274;2023-04-06T08:51:10;97689.88;;;6.89;100.00
70506;BME280;58032;49.820;6.274;2023-04-06T08:53:37;97689.25;;;7.18;100.00
70506;BME280;58032;49.820;6.274;2023-04-06T08:56:05;97692.25;;;7.27;100.00
70506;BME280;58032;49.820;6.274;2023-04-06T08:58:37;97684.75;;;7.57;100.00
70506;BME280;58032;49.820;6.274;2023-04-06T09:01:11;97686.47;;;7.34;100.00
70506;BME280;58032;49.820;6.274;2023-04-06T09:03:39;97692.06;;;7.34;100.00
70506;BME280;58032;49.820;6.274;2023-04-06T09:06:07;97680.72;;;7.74;100.00
70506;BME280;58032;49.820;6.274;2023-04-06T09:08:37;97691.38;;;8.13;100.00
70506;BME280;58032;49.820;6.274;2023-04-06T09:11:05;97689.25;;;7.18;100.00
70506;BME280;58032;49.820;6.274;2023-04-06T09:13:46;97691.13;;;7.57;100.00
70506;BME280;58032;49.820;6.274;2023-04-06T09:16:14;97686.75;;;7.56;100.00
70506;BME280;58032;49.820;6.274;2023-04-06T09:18:42;97682.06;;;7.70;100.00
70506;BME280;58032;49.820;6.274;2023-04-06T09:21:09;97680.22;;;8.26;100.00
70506;BME280;58032;49.820;6.274;2023-04-06T09:23:37;97675.34;;;8.13;100.00
70506;BME280;58032;49.820;6.274;2023-04-06T09:28:50;97677.41;;;7.80;100.00
70506;BME280;58032;49.820;6.274;2023-04-06T09:31:25;97678.09;;;7.84;100.00
70506;BME280;58032;49.820;6.274;2023-04-06T09:33:54;97671.94;;;8.05;100.00
70506;BME280;58032;49.820;6.274;2023-04-06T09:36:32;97680.31;;;8.22;100.00
70506;BME280;58032;49.820;6.274;2023-04-06T09:39:02;97678.44;;;8.48;100.00
70506;BME280;58032;49.820;6.274;2023-04-06T09:41:31;97675.63;;;8.78;100.00
70506;BME280;58032;49.820;6.274;2023-04-06T09:44:07;97674.28;;;8.23;100.00
70506;BME280;58032;49.820;6.274;2023-04-06T09:46:42;97674.63;;;8.09;100.00
70506;BME280;58032;49.820;6.274;2023-04-06T09:49:22;97673.00;;;8.12;100.00
70506;BME280;58032;49.820;6.274;2023-04-06T09:51:54;97672.28;;;7.91;100.00
70506;BME280;58032;49.820;6.274;2023-04-06T09:54:23;97676.84;;;8.01;100.00
70506;BME280;58032;49.820;6.274;2023-04-06T09:57:01;97675.28;;;7.84;100.00
70506;BME280;58032;49.820;6.274;2023-04-06T10:01:58;97674.03;;;8.18;100.00
70506;BME280;58032;49.820;6.274;2023-04-06T10:04:41;97675.91;;;8.37;100.00
70506;BME280;58032;49.820;6.274;2023-04-06T10:07:10;97677.03;;;8.40;100.00
70506;BME280;58032;49.820;6.274;2023-04-06T10:09:45;97679.84;;;8.40;100.00
70506;BME280;58032;49.820;6.274;2023-04-06T10:12:15;97672.47;;;8.76;100.00
70506;BME280;58032;49.820;6.274;2023-04-06T10:14:43;97671.84;;;9.10;100.00
70506;BME280;58032;49.820;6.274;2023-04-06T10:17:11;97672.75;;;9.20;100.00
70506;BME280;58032;49.820;6.274;2023-04-06T10:19:59;97669.63;;;9.44;100.00
70506;BME280;58032;49.820;6.274;2023-04-06T10:23:04;97667.56;;;9.83;100.00
70506;BME280;58032;49.820;6.274;2023-04-06T10:25:33;97669.50;;;9.73;100.00
70506;BME280;58032;49.820;6.274;2023-04-06T10:30:28;97673.47;;;9.50;100.00
70506;BME280;58032;49.820;6.274;2023-04-06T10:32:56;97660.31;;;9.60;100.00
70506;BME280;58032;49.820;6.274;2023-04-06T10:35:23;97660.78;;;9.45;100.00
70506;BME280;58032;49.820;6.274;2023-04-06T10:37:53;97661.09;;;9.34;100.00
70506;BME280;58032;49.820;6.274;2023-04-06T10:40:24;97665.03;;;9.37;100.00
70506;BME280;58032;49.820;6.274;2023-04-06T10:42:54;97664.47;;;9.55;100.00
70506;BME280;58032;49.820;6.274;2023-04-06T10:45:24;97669.63;;;9.70;100.00
70506;BME280;58032;49.820;6.274;2023-04-06T10:47:53;97668.69;;;10.34;100.00
70506;BME280;58032;49.820;6.274;2023-04-06T10:50:21;97668.53;;;10.02;100.00
70506;BME280;58032;49.820;6.274;2023-04-06T10:53:02;97666.59;;;10.60;100.00
70506;BME280;58032;49.820;6.274;2023-04-06T10:55:31;97666.97;;;10.93;100.00
70506;BME280;58032;49.820;6.274;2023-04-06T10:57:59;97668.22;;;10.70;100.00
70506;BME280;58032;49.820;6.274;2023-04-06T11:00:32;97668.22;;;10.48;100.00
70506;BME280;58032;49.820;6.274;2023-04-06T11:03:15;97658.75;;;10.07;100.00
70506;BME280;58032;49.820;6.274;2023-04-06T11:05:50;97661.47;;;9.97;100.00
70506;BME280;58032;49.820;6.274;2023-04-06T11:08:30;97662.72;;;10.32;100.00
70506;BME280;58032;49.820;6.274;2023-04-06T11:11:04;97666.44;;;10.28;100.00
70506;BME280;58032;49.820;6.274;2023-04-06T11:13:39;97664.03;;;10.05;100.00
70506;BME280;58032;49.820;6.274;2023-04-06T11:16:15;97667.16;;;9.85;100.00
70506;BME280;58032;49.820;6.274;2023-04-06T11:21:14;97669.50;;;9.47;100.00
70506;BME280;58032;49.820;6.274;2023-04-06T11:23:41;97669.81;;;8.98;100.00
70506;BME280;58032;49.820;6.274;2023-04-06T11:26:13;97670.28;;;9.09;100.00
70506;BME280;58032;49.820;6.274;2023-04-06T11:28:41;97667.72;;;9.15;100.00
70506;BME280;58032;49.820;6.274;2023-04-06T11:31:10;97670.75;;;9.08;100.00
70506;BME280;58032;49.820;6.274;2023-04-06T11:33:38;97678.22;;;8.85;100.00
70506;BME280;58032;49.820;6.274;2023-04-06T11:36:06;97674.75;;;8.51;100.00
70506;BME280;58032;49.820;6.274;2023-04-06T11:38:39;97663.31;;;8.59;100.00
70506;BME280;58032;49.820;6.274;2023-04-06T11:41:06;97663.66;;;9.16;100.00
70506;BME280;58032;49.820;6.274;2023-04-06T11:43:33;97667.63;;;8.63;100.00
70506;BME280;58032;49.820;6.274;2023-04-06T11:46:01;97659.19;;;8.63;100.00
70506;BME280;58032;49.820;6.274;2023-04-06T11:48:29;97658.38;;;8.63;100.00
70506;BME280;58032;49.820;6.274;2023-04-06T11:50:58;97669.25;;;8.31;100.00
70506;BME280;58032;49.820;6.274;2023-04-06T11:53:28;97660.63;;;8.09;100.00
70506;BME280;58032;49.820;6.274;2023-04-06T11:55:56;97659.63;;;8.32;100.00
70506;BME280;58032;49.820;6.274;2023-04-06T11:58:23;97666.59;;;8.57;100.00
70506;BME280;58032;49.820;6.274;2023-04-06T12:00:50;97659.19;;;8.63;100.00
70506;BME280;58032;49.820;6.274;2023-04-06T12:03:17;97662.75;;;8.05;100.00
70506;BME280;58032;49.820;6.274;2023-04-06T12:05:45;97661.50;;;8.35;100.00
70506;BME280;58032;49.820;6.274;2023-04-06T12:08:13;97660.28;;;8.36;100.00
70506;BME280;58032;49.820;6.274;2023-04-06T12:10:40;97657.41;;;8.69;100.00
70506;BME280;58032;49.820;6.274;2023-04-06T12:13:07;97657.13;;;8.93;100.00
70506;BME280;58032;49.820;6.274;2023-04-06T12:15:34;97660.75;;;9.19;100.00
70506;BME280;58032;49.820;6.274;2023-04-06T12:18:01;97660.19;;;9.12;100.00
70506;BME280;58032;49.820;6.274;2023-04-06T12:20:28;97652.22;;;9.23;100.00
70506;BME280;58032;49.820;6.274;2023-04-06T12:22:55;97646.59;;;9.36;100.00
70506;BME280;58032;49.820;6.274;2023-04-06T12:25:21;97657.84;;;9.23;100.00
70506;BME280;58032;49.820;6.274;2023-04-06T12:27:48;97654.25;;;9.23;100.00
70506;BME280;58032;49.820;6.274;2023-04-06T12:30:16;97662.44;;;8.62;100.00
70506;BME280;58032;49.820;6.274;2023-04-06T12:32:43;97666.38;;;8.64;100.00
70506;BME280;58032;49.820;6.274;2023-04-06T12:35:10;97663.63;;;8.48;100.00
70506;BME280;58032;49.820;6.274;2023-04-06T12:37:38;97669.44;;;8.24;100.00
70506;BME280;58032;49.820;6.274;2023-04-06T12:40:05;97668.59;;;8.11;100.00
70506;BME280;58032;49.820;6.274;2023-04-06T12:42:33;97674.59;;;7.96;100.00
70506;BME280;58032;49.820;6.274;2023-04-06T12:45:00;97673.78;;;7.63;100.00
70506;BME280;58032;49.820;6.274;2023-04-06T12:47:27;97674.31;;;7.41;100.00
70506;BME280;58032;49.820;6.274;2023-04-06T12:49:54;97679.38;;;7.29;100.00
70506;BME280;58032;49.820;6.274;2023-04-06T12:52:21;97680.03;;;7.70;100.00
70506;BME280;58032;49.820;6.274;2023-04-06T12:54:48;97674.03;;;8.01;100.00
70506;BME280;58032;49.820;6.274;2023-04-06T12:57:15;97674.91;;;8.15;100.00
70506;BME280;58032;49.820;6.274;2023-04-06T12:59:45;97670.31;;;7.75;100.00
70506;BME280;58032;49.820;6.274;2023-04-06T13:02:12;97664.88;;;7.51;100.00
70506;BME280;58032;49.820;6.274;2023-04-06T13:04:39;97664.72;;;7.22;100.00
70506;BME280;58032;49.820;6.274;2023-04-06T13:07:06;97661.78;;;7.95;100.00
70506;BME280;58032;49.820;6.274;2023-04-06T13:09:33;97660.38;;;8.03;100.00
70506;BME280;58032;49.820;6.274;2023-04-06T13:12:00;97656.38;;;8.63;100.00
70506;BME280;58032;49.820;6.274;2023-04-06T13:14:27;97652.31;;;8.51;100.00
70506;BME280;58032;49.820;6.274;2023-04-06T13:16:54;97654.00;;;8.49;100.00
70506;BME280;58032;49.820;6.274;2023-04-06T13:19:22;97656.28;;;8.21;100.00